Time;durP1;ratioP1;P1;durP2;ratioP2;P2;SDS_P1;SDS_P2;PMS_P1;PMS_P2;Temp;Humidity;BMP_temperature;BMP_pressure;BME280_temperature;BME280_humidity;BME280_pressure;Samples;Min_cycle;Max_cycle;Signal;HPM_P1;HPM_P2
2022/09/25 00:00:56;;;;;;;3.80;3.63;;;;;;;9.92;100.00;86421.50;5114059;28;20218;-61
2022/09/25 00:03:26;;;;;;;3.90;3.70;;;;;;;9.82;100.00;86078.53;5114219;28;20665;-61
2022/09/25 00:05:54;;;;;;;4.07;3.87;;;;;;;9.78;100.00;77571.22;5114270;28;20662;-62
2022/09/25 00:08:21;;;;;;;4.27;4.00;;;;;;;9.72;100.00;68106.59;5114218;28;20654;-62
2022/09/25 00:10:50;;;;;;;6.97;4.10;;;;;;;9.95;100.00;63250.59;5114003;28;20557;-61
2022/09/25 00:13:18;;;;;;;3.83;3.50;;;;;;;9.91;100.00;65850.00;5113810;28;20201;-61
2022/09/25 00:15:50;;;;;;;4.47;4.27;;;;;;;10.12;100.00;67175.53;5113940;28;20282;-60
2022/09/25 00:19:48;;;;;;;4.60;4.20;;;;;;;10.06;100.00;66844.03;5113800;28;20636;-61
2022/09/25 00:21:07;;;;;;;8.43;3.97;;;;;;;9.99;100.00;65207.47;5113750;28;20267;-59
2022/09/25 00:23:34;;;;;;;6.60;4.30;;;;;;;10.16;100.00;71418.00;5113929;28;20311;-59
2022/09/25 00:26:01;;;;;;;4.07;3.87;;;;;;;10.27;100.00;78617.16;5113407;28;20187;-60
2022/09/25 00:28:30;;;;;;;5.50;4.20;;;;;;;10.12;100.00;77942.63;5113364;28;20244;-59
2022/09/25 00:30:58;;;;;;;4.10;3.90;;;;;;;10.37;100.00;73076.34;5113747;28;20193;-59
2022/09/25 00:33:25;;;;;;;4.17;3.90;;;;;;;10.12;100.00;68479.44;5113800;28;20232;-60
2022/09/25 00:35:52;;;;;;;3.93;3.73;;;;;;;10.20;100.00;65556.19;5113414;28;20187;-59
2022/09/25 00:38:20;;;;;;;4.40;4.20;;;;;;;10.11;100.00;65546.56;5113323;28;20194;-60
2022/09/25 00:40:47;;;;;;;4.87;3.90;;;;;;;10.05;100.00;63261.53;5113248;28;20194;-60
2022/09/25 00:43:14;;;;;;;4.33;4.13;;;;;;;9.94;100.00;55126.84;5113569;28;20208;-60
2022/09/25 00:45:42;;;;;;;4.23;3.93;;;;;;;10.00;100.00;53835.13;5113475;28;20232;-59
2022/09/25 00:48:14;;;;;;;4.40;4.13;;;;;;;9.50;100.00;47634.88;5113089;28;20184;-59
2022/09/25 00:50:47;;;;;;;5.03;4.10;;;;;;;9.52;100.00;46019.00;5113038;28;20188;-60
2022/09/25 00:53:18;;;;;;;4.73;4.40;;;;;;;9.55;100.00;40527.78;5113396;28;20270;-59
2022/09/25 00:55:47;;;;;;;4.60;4.20;;;;;;;9.61;100.00;41178.03;5113243;28;20697;-59
2022/09/25 00:58:16;;;;;;;4.80;4.37;;;;;;;9.81;100.00;43131.47;5113544;28;20600;-59
2022/09/25 01:00:44;;;;;;;5.33;4.17;;;;;;;9.90;100.00;48963.19;5113025;28;20220;-60
2022/09/25 01:03:11;;;;;;;6.20;4.23;;;;;;;9.94;100.00;55776.44;5112987;28;20207;-58
2022/09/25 01:05:41;;;;;;;5.10;4.23;;;;;;;9.91;100.00;52528.97;5112746;28;20270;-59
2022/09/25 01:08:12;;;;;;;4.90;4.37;;;;;;;9.81;100.00;47984.06;5113225;28;20241;-59
2022/09/25 01:10:40;;;;;;;4.73;4.40;;;;;;;9.52;100.00;38588.44;5112986;28;20183;-59
2022/09/25 01:13:10;;;;;;;4.90;4.50;;;;;;;9.73;100.00;37956.91;5113153;28;20207;-59
2022/09/25 01:15:45;;;;;;;5.30;5.00;;;;;;;9.70;100.00;39891.91;5113046;28;20531;-60
2022/09/25 01:18:25;;;;;;;4.50;4.20;;;;;;;9.81;100.00;38931.19;5112533;28;20235;-59
2022/09/25 01:21:13;;;;;;;5.87;4.90;;;;;;;9.69;100.00;36340.91;5112574;28;20183;-59
2022/09/25 01:24:11;;;;;;;4.80;4.50;;;;;;;9.84;100.00;34737.72;5113004;28;20218;-60
2022/09/25 01:26:56;;;;;;;5.27;4.10;;;;;;;9.83;100.00;32802.94;5081481;28;20209;-58
2022/09/25 01:29:29;;;;;;;4.67;4.47;;;;;;;9.70;100.00;33117.22;5112301;28;20196;-60
2022/09/25 01:32:02;;;;;;;4.80;4.40;;;;;;;9.69;100.00;29251.59;5112349;28;20297;-59
2022/09/25 01:34:40;;;;;;;4.67;4.43;;;;;;;9.58;100.00;28280.66;5112560;28;20286;-60
2022/09/25 01:37:15;;;;;;;5.57;5.17;;;;;;;9.53;100.00;26027.00;5112625;28;20656;-60
2022/09/25 01:39:47;;;;;;;8.23;4.40;;;;;;;9.38;100.00;25698.19;5112621;28;20198;-60
2022/09/25 01:42:20;;;;;;;5.40;5.13;;;;;;;9.23;100.00;18950.25;5112776;28;20187;-59
2022/09/25 01:44:55;;;;;;;6.10;5.17;;;;;;;9.36;100.00;17993.06;5112095;28;20215;-60
2022/09/25 01:47:26;;;;;;;5.20;4.83;;;;;;;9.32;100.00;16068.34;5112589;28;20592;-59
2022/09/25 01:49:58;;;;;;;5.63;5.23;;;;;;;9.35;100.00;14147.28;5112198;28;20180;-60
2022/09/25 01:52:31;;;;;;;5.27;4.90;;;;;;;9.31;100.00;14146.16;5112366;28;20180;-59
2022/09/25 01:55:06;;;;;;;5.60;5.30;;;;;;;9.33;100.00;13185.97;5112450;28;20546;-59
2022/09/25 01:57:40;;;;;;;6.30;5.43;;;;;;;9.25;100.00;13503.97;5112486;28;20183;-59
2022/09/25 02:00:10;;;;;;;8.07;5.37;;;;;;;9.47;100.00;12549.31;5112227;28;20271;-60
2022/09/25 02:02:40;;;;;;;6.63;6.13;;;;;;;9.31;100.00;11265.22;5112435;28;20554;-59
2022/09/25 02:05:12;;;;;;;7.00;6.43;;;;;;;9.21;100.00;8384.88;5112274;28;20314;-59
2022/09/25 02:07:44;;;;;;;6.30;6.00;;;;;;;9.26;100.00;7107.41;5111993;28;20183;-59
2022/09/25 02:10:17;;;;;;;7.00;6.50;;;;;;;9.43;100.00;7110.28;5111895;28;20184;-59
2022/09/25 02:12:49;;;;;;;7.00;5.93;;;;;;;9.51;100.00;7751.00;5111918;28;20188;-59
2022/09/25 02:15:21;;;;;;;7.03;6.53;;;;;;;9.48;100.00;6791.47;5111971;28;20190;-60
2022/09/25 02:20:41;;;;;;;7.43;6.77;;;;;;;9.45;100.00;6151.84;5116234;28;20183;-59
2022/09/25 02:23:17;;;;;;;6.97;6.57;;;;;;;9.46;100.00;3915.91;5115965;28;20191;-60
2022/09/25 02:25:47;;;;;;;6.80;6.30;;;;;;;9.57;100.00;2959.09;5116262;28;20684;-59
2022/09/25 02:28:14;;;;;;;8.97;8.27;;;;;;;9.48;100.00;3596.81;5116232;28;20184;-60
2022/09/25 02:30:45;;;;;;;8.87;8.07;;;;;;;9.50;100.00;2000.81;5116323;28;20233;-59
2022/09/25 02:33:12;;;;;;;8.37;7.83;;;;;;;9.29;100.00;1361.00;5116037;28;20186;-59
2022/09/25 02:35:39;;;;;;;9.43;8.63;;;;;;;9.23;100.00;-1508.88;5115960;28;20216;-61
2022/09/25 02:38:06;;;;;;;9.60;8.87;;;;;;;9.39;100.00;-1189.66;5115758;28;20183;-59
2022/09/25 02:40:42;;;;;;;14.17;9.40;;;;;;;9.48;100.00;-1508.19;5115639;28;20195;-59
2022/09/25 02:43:21;;;;;;;12.33;10.27;;;;;;;9.57;100.00;-2145.63;5115578;28;20183;-60
2022/09/25 02:46:02;;;;;;;11.33;10.20;;;;;;;9.60;100.00;-1507.88;5116038;28;20187;-60
2022/09/25 02:48:38;;;;;;;12.10;11.07;;;;;;;9.28;100.00;-1190.00;5115692;28;20535;-60
2022/09/25 02:51:11;;;;;;;17.03;14.07;;;;;;;9.39;100.00;85.78;5115693;28;20278;-59
2022/09/25 02:53:41;;;;;;;23.90;17.87;;;;;;;9.14;100.00;-871.78;5115415;28;20182;-59
2022/09/25 02:56:14;;;;;;;31.40;21.90;;;;;;;9.04;100.00;-872.16;5115477;28;20641;-60
2022/09/25 02:58:47;;;;;;;33.17;22.93;;;;;;;9.05;100.00;-1509.34;5115699;28;20562;-59
2022/09/25 03:01:18;;;;;;;32.10;23.27;;;;;;;8.92;100.00;-235.34;5115504;28;20245;-59
2022/09/25 03:03:49;;;;;;;31.43;23.43;;;;;;;9.10;100.00;721.88;5115204;28;20217;-60
2022/09/25 03:06:16;;;;;;;41.23;24.70;;;;;;;8.98;100.00;721.13;5115248;28;20197;-59
2022/09/25 03:08:45;;;;;;;48.87;27.83;;;;;;;8.71;100.00;-236.34;5115085;28;20186;-60
2022/09/25 03:11:14;;;;;;;43.23;30.13;;;;;;;8.97;100.00;721.03;5115361;28;20535;-60
2022/09/25 03:13:42;;;;;;;56.73;30.93;;;;;;;8.90;100.00;2314.69;5114845;28;20194;-59
2022/09/25 03:16:16;;;;;;;50.17;30.90;;;;;;;8.91;100.00;4228.63;5115437;28;20187;-59
2022/09/25 03:18:44;;;;;;;54.47;33.23;;;;;;;8.98;100.00;3910.38;5114925;28;20604;-58
2022/09/25 03:21:11;;;;;;;52.83;34.20;;;;;;;9.05;100.00;5507.22;5115002;28;20190;-60
2022/09/25 03:23:38;;;;;;;57.83;34.60;;;;;;;8.71;100.00;4545.25;5115490;28;20195;-59
2022/09/25 03:26:06;;;;;;;55.37;36.27;;;;;;;8.63;100.00;3906.38;5114669;28;20188;-60
2022/09/25 03:28:34;;;;;;;68.53;37.50;;;;;;;8.53;100.00;2630.13;5096722;28;20191;-61
2022/09/25 03:31:02;;;;;;;67.40;35.53;;;;;;;8.54;100.00;1992.81;5113632;28;20210;-59
2022/09/25 03:33:31;;;;;;;58.50;36.00;;;;;;;8.58;100.00;1993.16;5114643;28;20261;-59
2022/09/25 03:36:07;;;;;;;56.27;35.63;;;;;;;8.66;100.00;1993.84;5114446;28;20195;-59
2022/09/25 03:38:34;;;;;;;56.17;38.77;;;;;;;8.75;100.00;2950.97;5114518;28;20194;-59
2022/09/25 03:41:02;;;;;;;55.77;38.37;;;;;;;8.63;100.00;4544.31;5114854;28;20633;-59
2022/09/25 03:43:34;;;;;;;58.27;37.53;;;;;;;8.93;100.00;5186.31;5114418;28;20195;-59
2022/09/25 03:46:01;;;;;;;60.93;37.83;;;;;;;8.94;100.00;5505.66;5114598;28;20642;-59
2022/09/25 03:48:28;;;;;;;61.13;37.50;;;;;;;8.95;100.00;7421.72;5114213;28;20271;-60
2022/09/25 03:50:55;;;;;;;70.27;37.73;;;;;;;9.00;100.00;7741.94;5114144;28;20187;-60
2022/09/25 03:53:24;;;;;;;63.63;38.73;;;;;;;9.09;100.00;6785.13;5114311;28;20184;-60
2022/09/25 03:55:51;;;;;;;64.87;38.27;;;;;;;9.18;100.00;6467.16;5114244;28;20180;-58
2022/09/25 03:58:18;;;;;;;61.33;38.90;;;;;;;9.18;100.00;6467.22;5114084;28;20186;-60
2022/09/25 04:00:46;;;;;;;54.70;37.27;;;;;;;9.04;100.00;8062.13;5114412;28;20747;-59
2022/09/25 04:03:13;;;;;;;66.10;38.20;;;;;;;9.09;100.00;8702.19;5114099;28;20183;-60
2022/09/25 04:05:40;;;;;;;59.70;33.23;;;;;;;9.24;100.00;9024.72;5113839;28;20203;-58
2022/09/25 04:08:07;;;;;;;61.87;33.53;;;;;;;9.29;100.00;10305.00;5113907;28;20223;-59
2022/09/25 04:10:37;;;;;;;61.07;37.90;;;;;;;9.40;100.00;13828.44;5113918;28;20187;-60
2022/09/25 04:13:05;;;;;;;63.03;37.30;;;;;;;8.94;100.00;15096.16;5114174;28;20187;-59
2022/09/25 04:15:32;;;;;;;54.13;34.67;;;;;;;9.08;100.00;16381.44;5114199;28;20184;-60
2022/09/25 04:17:59;;;;;;;62.60;35.20;;;;;;;9.03;100.00;14138.25;5113868;28;20297;-60
2022/09/25 04:20:27;;;;;;;54.70;35.87;;;;;;;8.91;100.00;12535.19;5114057;28;20219;-60
2022/09/25 04:22:53;;;;;;;52.70;33.13;;;;;;;9.06;100.00;12218.97;5113721;28;20252;-59
2022/09/25 04:25:24;;;;;;;55.30;32.80;;;;;;;8.98;100.00;11577.25;5113833;28;20681;-59
2022/09/25 04:27:54;;;;;;;48.07;32.37;;;;;;;9.07;100.00;12219.22;5113556;28;20194;-60
2022/09/25 04:30:21;;;;;;;55.60;31.67;;;;;;;9.32;100.00;12865.56;5113541;28;20183;-60
2022/09/25 04:35:32;;;;;;;55.13;31.47;;;;;;;9.64;100.00;19606.94;5113897;28;20185;-60
2022/09/25 04:38:00;;;;;;;51.70;31.23;;;;;;;9.97;100.00;23474.88;5113126;28;20183;-60
2022/09/25 04:40:27;;;;;;;44.70;30.80;;;;;;;10.44;100.00;37681.38;5113388;28;20183;-60
2022/09/25 04:42:57;;;;;;;46.77;29.03;;;;;;;11.42;100.00;68957.75;5113364;28;20287;-60
2022/09/25 04:45:25;;;;;;;41.10;28.90;;;;;;;11.95;100.00;116086.91;5113492;28;20677;-60
2022/09/25 04:47:52;;;;;;;46.27;29.13;;;;;;;12.35;100.00;149144.88;5113152;28;20191;-60
2022/09/25 04:50:20;;;;;;;51.67;29.00;;;;;;;12.67;100.00;149223.41;5113331;28;20626;-59
2022/09/25 04:52:47;;;;;;;37.33;26.63;;;;;;;12.84;100.00;149266.44;5113049;28;20193;-60
2022/09/25 04:55:15;;;;;;;45.57;27.20;;;;;;;13.58;100.00;149451.41;5113574;28;20259;-61
2022/09/25 04:57:42;;;;;;;38.93;25.80;;;;;;;14.24;100.00;149616.19;5113181;28;20196;-60
2022/09/25 05:00:18;;;;;;;33.03;22.43;;;;;;;15.17;100.00;149849.56;5113017;28;20195;-62
2022/09/25 05:02:45;;;;;;;46.07;28.20;;;;;;;15.37;100.00;149900.28;5113201;28;20179;-60
2022/09/25 05:05:12;;;;;;;33.00;25.87;;;;;;;15.80;100.00;150008.22;5112741;28;20232;-60
2022/09/25 05:07:38;;;;;;;40.13;27.10;;;;;;;15.99;100.00;150057.75;5113156;28;20190;-60
2022/09/25 05:10:07;;;;;;;40.43;27.80;;;;;;;16.15;100.00;150095.81;5112998;28;20545;-60
2022/09/25 05:12:35;;;;;;;45.53;32.53;;;;;;;16.81;100.00;150262.19;5112734;28;20191;-60
2022/09/25 05:15:02;;;;;;;50.00;32.47;;;;;;;16.23;100.00;150116.13;5112634;28;20270;-61
2022/09/25 05:17:30;;;;;;;50.23;34.77;;;;;;;15.76;100.00;149998.06;5112538;28;20190;-60
2022/09/25 05:19:57;;;;;;;61.37;39.10;;;;;;;15.34;100.00;149892.69;5112384;28;20253;-61
2022/09/25 05:22:24;;;;;;;74.70;47.73;;;;;;;16.05;100.00;150070.41;5112784;28;20291;-61
2022/09/25 05:24:52;;;;;;;85.70;52.00;;;;;;;16.49;100.00;150180.88;5112435;28;20238;-61
2022/09/25 05:27:20;;;;;;;96.47;54.63;;;;;;;17.86;100.00;150525.28;5112491;28;20187;-61
2022/09/25 05:29:48;;;;;;;100.50;58.27;;;;;;;18.36;100.00;150652.41;5112416;28;20286;-60
2022/09/25 05:32:15;;;;;;;93.80;57.60;;;;;;;18.83;100.00;150769.47;5112598;28;20640;-61
2022/09/25 05:34:43;;;;;;;85.00;55.23;;;;;;;18.55;100.00;150699.50;5112294;28;20183;-60
2022/09/25 05:37:10;;;;;;;95.90;56.83;;;;;;;18.06;100.00;150577.41;5112688;28;20602;-61
2022/09/25 05:39:37;;;;;;;87.07;54.63;;;;;;;18.25;100.00;150624.41;5112386;28;20225;-60
2022/09/25 05:42:04;;;;;;;84.67;51.97;;;;;;;18.09;100.00;150585.00;5094234;28;20275;-61
2022/09/25 05:44:31;;;;;;;97.37;51.80;;;;;;;17.98;100.00;150557.06;5112233;28;20199;-60
2022/09/25 05:46:58;;;;;;;77.67;47.83;;;;;;;18.08;100.00;150582.47;5112526;28;20183;-61
2022/09/25 05:49:25;;;;;;;81.67;49.87;;;;;;;17.82;100.00;150515.13;5112594;28;20183;-61
2022/09/25 05:51:53;;;;;;;74.67;47.43;;;;;;;17.43;100.00;150418.47;5112452;28;20237;-60
2022/09/25 05:54:20;;;;;;;81.37;52.73;;;;;;;17.32;100.00;150390.50;5111627;28;20561;-60
2022/09/25 05:56:47;;;;;;;116.13;68.97;;;;;;;17.31;100.00;150388.00;5112418;28;20599;-61
2022/09/25 05:59:14;;;;;;;113.03;77.93;;;;;;;17.21;100.00;150362.56;5111707;28;20317;-60
2022/09/25 06:01:41;;;;;;;114.90;72.73;;;;;;;17.13;100.00;150343.50;5112101;28;20188;-60
2022/09/25 06:04:09;;;;;;;101.73;60.30;;;;;;;17.55;100.00;150448.97;5112051;28;20187;-61
2022/09/25 06:06:35;;;;;;;103.00;66.03;;;;;;;17.81;100.00;150513.84;5112350;28;20684;-61
2022/09/25 06:09:04;;;;;;;113.37;79.40;;;;;;;18.30;100.00;150637.13;5112425;28;20190;-61
2022/09/25 06:11:31;;;;;;;137.17;93.00;;;;;;;18.75;100.00;150750.41;5112306;28;20183;-61
2022/09/25 06:13:58;;;;;;;151.17;98.13;;;;;;;19.26;100.00;150878.88;5112170;28;20179;-61
2022/09/25 06:16:25;;;;;;;138.60;94.30;;;;;;;19.77;100.00;151007.47;5112271;28;20186;-61
2022/09/25 06:18:52;;;;;;;148.77;90.80;;;;;;;20.80;100.00;151267.25;5111808;28;20245;-61
2022/09/25 06:21:20;;;;;;;132.67;88.97;;;;;;;21.60;100.00;151467.38;5112116;28;20183;-61
2022/09/25 06:23:47;;;;;;;127.00;79.57;;;;;;;21.93;100.00;151551.53;5112434;28;20650;-62
2022/09/25 06:26:15;;;;;;;116.03;81.40;;;;;;;22.15;100.00;151606.38;5111817;28;20207;-62
2022/09/25 06:28:42;;;;;;;112.75;77.38;;;;;;;21.77;100.00;151510.66;5112135;28;20184;-61
2022/09/25 06:31:09;;;;;;;110.82;74.00;;;;;;;21.85;100.00;151532.34;5111878;28;20191;-61
2022/09/25 06:33:36;;;;;;;116.22;76.32;;;;;;;22.39;100.00;151667.56;5112171;28;20183;-61
2022/09/25 06:36:05;;;;;;;100.60;74.03;;;;;;;22.81;100.00;151772.19;5112191;28;20573;-65
2022/09/25 06:38:33;;;;;;;111.10;73.05;;;;;;;23.10;98.35;151846.16;5112241;28;20669;-61
2022/09/25 06:41:00;;;;;;;107.53;72.10;;;;;;;23.02;100.00;151825.75;5111867;28;20278;-61
2022/09/25 06:43:29;;;;;;;103.32;68.78;;;;;;;23.03;97.59;151829.59;5111689;28;20183;-61
2022/09/25 06:46:01;;;;;;;100.15;64.47;;;;;;;23.02;99.61;151825.75;5111846;28;20208;-61
2022/09/25 06:48:28;;;;;;;92.93;65.20;;;;;;;22.76;100.00;151760.69;5111934;28;20195;-62
2022/09/25 06:50:57;;;;;;;96.05;63.33;;;;;;;22.46;100.00;151684.13;5093993;28;20193;-61
2022/09/25 06:53:25;;;;;;;84.22;56.92;;;;;;;22.47;100.00;151686.69;5112035;28;20183;-62
2022/09/25 06:55:55;;;;;;;84.57;56.35;;;;;;;22.57;100.00;151712.22;5111778;28;20187;-61
2022/09/25 06:58:24;;;;;;;69.35;50.70;;;;;;;22.87;100.00;151788.78;5111915;28;20235;-61
2022/09/25 07:00:54;;;;;;;66.57;45.83;;;;;;;23.04;100.00;151830.88;5111616;28;20191;-62
2022/09/25 07:06:07;;;;;;;55.47;41.53;;;;;;;23.64;96.89;151984.03;5115202;28;20202;-61
2022/09/25 07:08:35;;;;;;;49.42;38.63;;;;;;;23.83;98.14;152031.28;5115212;28;20218;-62
2022/09/25 07:11:02;;;;;;;38.88;31.98;;;;;;;24.10;95.12;152098.94;5115284;28;20206;-62
2022/09/25 07:13:31;;;;;;;17.73;16.27;;;;;;;24.21;91.68;152125.78;5115692;28;20194;-61
2022/09/25 07:16:01;;;;;;;33.15;22.08;;;;;;;24.30;90.93;152150.06;5115440;28;20656;-61
2022/09/25 07:18:29;;;;;;;34.88;30.75;;;;;;;24.33;91.42;152156.41;5114753;28;20230;-61
2022/09/25 07:21:00;;;;;;;34.45;28.55;;;;;;;24.66;92.41;152240.69;5115164;28;20656;-60
2022/09/25 07:23:29;;;;;;;27.08;24.02;;;;;;;25.11;87.29;152353.16;5115138;28;20195;-61
2022/09/25 07:25:58;;;;;;;23.40;20.92;;;;;;;25.32;85.04;152408.13;5115081;28;20203;-62
2022/09/25 07:28:25;;;;;;;15.25;14.15;;;;;;;25.16;83.78;152365.94;5115064;28;20206;-61
2022/09/25 07:30:51;;;;;;;13.73;11.60;;;;;;;25.51;82.93;152455.34;5114779;28;20194;-61
2022/09/25 07:33:23;;;;;;;13.25;12.00;;;;;;;25.68;79.72;152497.56;5115030;28;20195;-61
2022/09/25 07:35:50;;;;;;;12.07;11.30;;;;;;;25.40;78.87;152427.25;5115024;28;20271;-61
2022/09/25 07:38:17;;;;;;;10.60;9.95;;;;;;;25.38;79.29;152423.41;5114835;28;20558;-60
2022/09/25 07:40:44;;;;;;;7.07;6.57;;;;;;;25.07;80.38;152342.94;5114833;28;20208;-61
2022/09/25 07:43:11;;;;;;;7.50;7.20;;;;;;;24.53;82.34;152208.75;5114418;28;20191;-61
2022/09/25 07:45:38;;;;;;;5.68;5.38;;;;;;;24.79;82.83;152273.91;5114711;28;20297;-61
2022/09/25 07:48:06;;;;;;;6.60;6.20;;;;;;;24.62;83.37;152229.19;5114855;28;20271;-62
2022/09/25 07:50:34;;;;;;;6.75;6.13;;;;;;;24.97;83.14;152319.94;5114450;28;20237;-61
2022/09/25 07:53:01;;;;;;;6.25;5.90;;;;;;;25.05;81.72;152339.09;5114805;28;20183;-62
2022/09/25 07:55:28;;;;;;;6.45;5.88;;;;;;;25.28;78.99;152396.59;5114696;28;20607;-61
2022/09/25 07:57:57;;;;;;;6.32;5.93;;;;;;;24.91;81.96;152304.59;5114554;28;20629;-61
2022/09/25 08:00:24;;;;;;;5.88;5.40;;;;;;;24.73;83.94;152258.59;5114497;28;20184;-61
2022/09/25 08:02:59;;;;;;;6.47;5.85;;;;;;;25.29;85.66;152399.19;5114301;28;20191;-61
2022/09/25 08:05:27;;;;;;;5.55;5.32;;;;;;;25.67;80.14;152495.06;5114340;28;20738;-61
2022/09/25 08:07:55;;;;;;;4.53;4.30;;;;;;;25.86;73.27;152544.88;5114515;28;20184;-60
2022/09/25 08:10:22;;;;;;;5.45;5.15;;;;;;;25.98;73.09;152572.97;5114641;28;20193;-61
2022/09/25 08:12:49;;;;;;;5.07;4.70;;;;;;;25.98;78.61;152574.28;5114610;28;20183;-61
2022/09/25 08:15:17;;;;;;;4.80;4.45;;;;;;;25.44;79.91;152437.50;5114225;28;20179;-60
2022/09/25 08:17:44;;;;;;;7.80;5.28;;;;;;;25.46;78.69;152442.63;5113242;28;20195;-62
2022/09/25 08:20:11;;;;;;;4.97;4.78;;;;;;;25.29;75.75;152400.41;5114264;28;20252;-61
2022/09/25 08:22:37;;;;;;;4.47;4.28;;;;;;;25.31;77.79;152405.53;5114104;28;20199;-60
2022/09/25 08:25:07;;;;;;;6.40;5.88;;;;;;;25.11;79.44;152354.44;5113977;28;20190;-61
2022/09/25 08:27:39;;;;;;;7.25;6.57;;;;;;;25.33;78.91;152409.41;5114004;28;20183;-61
2022/09/25 08:30:08;;;;;;;6.75;6.35;;;;;;;25.47;78.08;152445.13;5113677;28;20245;-60
2022/09/25 08:32:38;;;;;;;5.80;5.40;;;;;;;25.90;77.19;152553.81;5113844;28;20187;-61
2022/09/25 08:35:06;;;;;;;6.50;6.20;;;;;;;26.56;74.03;152721.38;5113396;28;20230;-61
2022/09/25 08:37:33;;;;;;;8.65;7.43;;;;;;;26.90;69.86;152805.81;5113409;28;20190;-61
2022/09/25 08:40:00;;;;;;;7.57;7.10;;;;;;;26.89;72.44;152803.25;5113792;28;20199;-62
2022/09/25 08:42:35;;;;;;;6.88;6.28;;;;;;;27.04;66.37;152841.59;5095508;28;20187;-62
2022/09/25 08:50:37;;;;;;;6.88;6.57;;;;;;;27.15;64.36;152869.78;5113353;28;20235;-62
2022/09/25 08:53:07;;;;;;;7.30;6.90;;;;;;;27.53;63.91;152965.78;5113410;28;20194;-62
2022/09/25 08:58:24;;;;;;;5.90;5.70;;;;;;;28.64;54.56;153247.41;5099831;28;20202;-62
2022/09/25 09:00:53;;;;;;;6.32;5.82;;;;;;;29.39;51.80;153437.03;5113293;28;20187;-62
2022/09/25 09:03:23;;;;;;;6.03;5.80;;;;;;;28.75;53.26;153274.34;5113284;28;20247;-62
2022/09/25 09:05:54;;;;;;;7.82;7.43;;;;;;;28.24;59.03;153146.25;5094569;28;20207;-62
2022/09/25 09:08:24;;;;;;;7.82;7.38;;;;;;;28.41;59.49;153188.50;5113216;28;20203;-61
2022/09/25 09:10:57;;;;;;;6.88;6.57;;;;;;;28.68;59.78;153256.38;5113010;28;20180;-61
2022/09/25 09:13:30;;;;;;;6.57;5.63;;;;;;;28.40;58.20;153187.22;5112952;28;20610;-61
2022/09/25 09:16:03;;;;;;;4.22;3.97;;;;;;;27.48;60.14;152952.97;5112983;28;20183;-60
2022/09/25 09:18:31;;;;;;;4.90;4.80;;;;;;;27.08;64.66;152853.13;5112697;28;20688;-61
2022/09/25 09:21:02;;;;;;;5.22;4.90;;;;;;;27.87;62.18;153051.50;5112670;28;20183;-61
2022/09/25 09:23:34;;;;;;;4.22;4.13;;;;;;;28.13;57.57;153119.34;5112631;28;20199;-61
2022/09/25 09:26:02;;;;;;;4.43;4.13;;;;;;;27.62;56.56;152990.09;5112377;28;20207;-61
2022/09/25 09:29:06;;;;;;;4.10;3.90;;;;;;;27.98;59.39;153079.66;5111729;28;20187;-60
2022/09/25 09:31:47;;;;;;;3.95;3.75;;;;;;;28.04;61.53;153096.31;5087001;28;20680;-62
2022/09/25 09:34:33;;;;;;;4.25;3.95;;;;;;;28.84;60.22;153297.38;5112323;28;20615;-62
2022/09/25 09:37:10;;;;;;;4.18;3.97;;;;;;;29.10;57.52;153364.00;5112382;28;20194;-61
2022/09/25 09:39:42;;;;;;;3.88;3.78;;;;;;;28.99;62.85;153335.78;5112426;28;20542;-61
2022/09/25 09:42:21;;;;;;;4.03;3.80;;;;;;;28.04;67.17;153096.31;5112396;28;20193;-62
2022/09/25 09:45:00;;;;;;;4.00;3.90;;;;;;;28.44;67.52;153197.47;5112537;28;20649;-62
2022/09/25 09:47:43;;;;;;;4.28;4.07;;;;;;;28.34;65.11;153170.59;5112503;28;20202;-61
2022/09/25 09:50:26;;;;;;;3.50;3.40;;;;;;;26.72;75.56;152762.28;5112293;28;20195;-61
2022/09/25 09:53:01;;;;;;;4.35;4.10;;;;;;;26.64;78.94;152741.84;5112335;28;20187;-61
2022/09/25 09:55:37;;;;;;;3.97;3.78;;;;;;;25.97;89.20;152570.47;5112160;28;20193;-61
2022/09/25 09:58:23;;;;;;;3.80;3.60;;;;;;;25.82;92.37;152534.66;5094351;28;20275;-61
2022/09/25 10:00:52;;;;;;;4.63;4.50;;;;;;;26.13;93.63;152611.38;5112173;28;20194;-61
2022/09/25 10:03:23;;;;;;;3.65;3.55;;;;;;;25.41;100.00;152429.84;5112446;28;20644;-60
2022/09/25 10:05:53;;;;;;;3.97;3.67;;;;;;;26.38;96.63;152675.34;5112317;28;20582;-62
2022/09/25 10:08:20;;;;;;;3.75;3.55;;;;;;;26.66;91.71;152745.63;5112495;28;20638;-61
2022/09/25 10:10:52;;;;;;;3.75;3.60;;;;;;;26.45;93.68;152693.22;5112294;28;20209;-61
2022/09/25 10:13:23;;;;;;;3.40;3.30;;;;;;;26.69;92.85;152754.59;5112281;28;20380;-60
2022/09/25 10:15:57;;;;;;;3.55;3.45;;;;;;;26.99;94.94;152828.84;5094526;28;20195;-61
2022/09/25 10:18:30;;;;;;;3.63;3.33;;;;;;;26.65;95.03;152744.34;5111787;28;20227;-60
2022/09/25 10:21:03;;;;;;;3.50;3.40;;;;;;;25.51;100.00;152455.34;5112290;28;20187;-61
2022/09/25 10:23:37;;;;;;;3.85;3.65;;;;;;;24.45;100.00;152187.06;5112374;28;20513;-62
2022/09/25 10:26:22;;;;;;;3.95;3.67;;;;;;;23.87;100.00;152040.19;5111996;28;20199;-61
2022/09/25 10:28:49;;;;;;;3.70;3.60;;;;;;;24.33;100.00;152157.69;5111836;28;20183;-61
2022/09/25 10:31:19;;;;;;;3.50;3.30;;;;;;;24.46;100.00;152189.63;5112307;28;20272;-60
2022/09/25 10:34:00;;;;;;;3.47;3.22;;;;;;;24.52;99.06;152204.97;5112084;28;20286;-61
2022/09/25 10:36:50;;;;;;;3.25;3.15;;;;;;;24.41;92.69;152176.84;5112191;28;20630;-60
2022/09/25 10:39:31;;;;;;;3.13;2.92;;;;;;;24.63;87.66;152233.03;5106998;28;20711;-61
2022/09/25 10:41:59;;;;;;;3.42;3.22;;;;;;;24.46;85.29;152190.91;5115997;28;20201;-61
2022/09/25 10:44:32;;;;;;;3.08;2.90;;;;;;;24.23;80.93;152132.16;5115727;28;20184;-60
2022/09/25 10:50:20;;;;;;;3.05;2.80;;;;;;;25.44;68.79;152438.78;5115780;28;20170;-64
2022/09/25 10:52:50;;;;;;;2.80;2.70;;;;;;;25.87;64.88;152546.16;5115557;28;20190;-64
2022/09/25 10:55:27;;;;;;;2.78;2.67;;;;;;;25.77;63.78;152520.59;5115629;28;20274;-65
2022/09/25 10:58:04;;;;;;;2.35;2.25;;;;;;;26.62;58.44;152736.69;5115357;28;20240;-65
2022/09/25 11:00:35;;;;;;;2.60;2.50;;;;;;;27.06;52.73;152846.75;5115457;28;20183;-65
2022/09/25 11:03:05;;;;;;;2.50;2.40;;;;;;;26.35;54.13;152667.69;5115657;28;20183;-65
2022/09/25 11:05:34;;;;;;;2.67;2.40;;;;;;;25.60;57.51;152478.41;5115286;28;20202;-63
2022/09/25 11:08:04;;;;;;;3.97;2.60;;;;;;;25.22;63.74;152381.25;5115624;28;20344;-64
2022/09/25 11:10:35;;;;;;;2.42;2.33;;;;;;;25.07;65.52;152342.94;5115319;28;20184;-64
2022/09/25 11:13:07;;;;;;;2.55;2.35;;;;;;;24.46;66.06;152189.63;5115302;28;20179;-64
2022/09/25 11:15:37;;;;;;;3.00;2.22;;;;;;;24.21;65.82;152125.78;5115371;28;20527;-65
2022/09/25 11:18:26;;;;;;;3.03;2.75;;;;;;;23.88;67.19;152042.75;5114973;28;20259;-64
2022/09/25 11:21:01;;;;;;;5.38;2.50;;;;;;;23.60;70.85;151972.53;5114873;28;20196;-65
2022/09/25 11:23:37;;;;;;;3.72;3.42;;;;;;;23.49;74.24;151944.47;5115379;28;20195;-64
2022/09/25 11:26:08;;;;;;;4.03;2.70;;;;;;;23.34;76.12;151907.41;5114743;28;20189;-65
2022/09/25 11:28:41;;;;;;;6.00;3.53;;;;;;;23.17;80.20;151865.28;5115132;28;20590;-64
2022/09/25 11:31:16;;;;;;;3.10;3.00;;;;;;;23.16;76.84;151861.50;5115202;28;20187;-64
2022/09/25 11:33:51;;;;;;;2.83;2.72;;;;;;;23.19;74.68;151869.13;5097568;28;20193;-64
2022/09/25 11:36:20;;;;;;;2.97;2.88;;;;;;;23.18;76.22;151867.84;5114975;28;20185;-63
2022/09/25 11:41:39;;;;;;;2.90;2.70;;;;;;;23.38;80.58;151916.38;5114938;28;20178;-64
2022/09/25 11:44:16;;;;;;;2.90;2.80;;;;;;;23.37;76.93;151913.81;5114778;28;20188;-63
2022/09/25 11:46:55;;;;;;;2.80;2.60;;;;;;;23.08;76.31;151842.38;5114596;28;20209;-65
2022/09/25 11:49:26;;;;;;;5.60;2.90;;;;;;;23.23;74.28;151880.63;5114920;28;20626;-64
2022/09/25 11:52:22;;;;;;;3.30;3.00;;;;;;;23.19;76.06;151870.41;5113209;28;20179;-64
2022/09/25 11:55:33;;;;;;;2.63;2.53;;;;;;;23.22;78.44;151878.06;5114286;28;20183;-66
2022/09/25 11:58:13;;;;;;;3.08;2.88;;;;;;;22.91;80.68;151797.72;5093394;28;20194;-64